sensor_id;sensor_type;location;lat;lon;timestamp;P1;durP1;ratioP1;P2;durP2;ratioP2
44456;SDS011;30159;49.316;8.558;2023-12-29T00:02:02;3.77;;;1.70;;
44456;SDS011;30159;49.316;8.558;2023-12-29T00:04:29;4.90;;;2.43;;
44456;SDS011;30159;49.316;8.558;2023-12-29T00:06:56;4.03;;;2.90;;
44456;SDS011;30159;49.316;8.558;2023-12-29T00:09:22;1.87;;;1.70;;
44456;SDS011;30159;49.316;8.558;2023-12-29T00:11:49;3.00;;;2.70;;
44456;SDS011;30159;49.316;8.558;2023-12-29T00:14:17;3.13;;;2.50;;
44456;SDS011;30159;49.316;8.558;2023-12-29T00:16:43;2.93;;;2.53;;
44456;SDS011;30159;49.316;8.558;2023-12-29T00:19:12;3.20;;;2.20;;
44456;SDS011;30159;49.316;8.558;2023-12-29T00:21:38;2.83;;;2.57;;
44456;SDS011;30159;49.316;8.558;2023-12-29T00:24:05;4.13;;;2.73;;
44456;SDS011;30159;49.316;8.558;2023-12-29T00:26:32;1.90;;;1.60;;
44456;SDS011;30159;49.316;8.558;2023-12-29T00:28:58;3.07;;;2.00;;
44456;SDS011;30159;49.316;8.558;2023-12-29T00:31:25;5.53;;;2.73;;
44456;SDS011;30159;49.316;8.558;2023-12-29T00:33:52;5.77;;;2.77;;
44456;SDS011;30159;49.316;8.558;2023-12-29T00:36:21;3.43;;;2.40;;
44456;SDS011;30159;49.316;8.558;2023-12-29T00:38:47;4.73;;;2.70;;
44456;SDS011;30159;49.316;8.558;2023-12-29T00:41:14;4.00;;;2.40;;
44456;SDS011;30159;49.316;8.558;2023-12-29T00:43:40;3.93;;;2.00;;
44456;SDS011;30159;49.316;8.558;2023-12-29T00:46:07;4.53;;;2.10;;
44456;SDS011;30159;49.316;8.558;2023-12-29T00:48:34;4.20;;;2.40;;
44456;SDS011;30159;49.316;8.558;2023-12-29T00:51:01;3.43;;;3.00;;
44456;SDS011;30159;49.316;8.558;2023-12-29T00:53:29;2.90;;;2.37;;
44456;SDS011;30159;49.316;8.558;2023-12-29T00:55:57;4.00;;;2.40;;
44456;SDS011;30159;49.316;8.558;2023-12-29T00:58:24;3.67;;;2.40;;
44456;SDS011;30159;49.316;8.558;2023-12-29T01:00:50;5.07;;;2.83;;
44456;SDS011;30159;49.316;8.558;2023-12-29T01:03:17;3.63;;;2.30;;
44456;SDS011;30159;49.316;8.558;2023-12-29T01:05:44;4.37;;;2.33;;
44456;SDS011;30159;49.316;8.558;2023-12-29T01:08:10;2.87;;;2.67;;
44456;SDS011;30159;49.316;8.558;2023-12-29T01:10:38;2.40;;;2.20;;
44456;SDS011;30159;49.316;8.558;2023-12-29T01:13:05;2.73;;;2.53;;
44456;SDS011;30159;49.316;8.558;2023-12-29T01:15:31;2.50;;;1.67;;
44456;SDS011;30159;49.316;8.558;2023-12-29T01:17:58;2.90;;;2.70;;
44456;SDS011;30159;49.316;8.558;2023-12-29T01:20:25;3.47;;;2.30;;
44456;SDS011;30159;49.316;8.558;2023-12-29T01:22:51;4.23;;;2.27;;
44456;SDS011;30159;49.316;8.558;2023-12-29T01:25:18;2.40;;;1.90;;
44456;SDS011;30159;49.316;8.558;2023-12-29T01:27:46;2.00;;;1.80;;
44456;SDS011;30159;49.316;8.558;2023-12-29T01:30:12;5.50;;;2.37;;
44456;SDS011;30159;49.316;8.558;2023-12-29T01:32:39;2.63;;;1.67;;
44456;SDS011;30159;49.316;8.558;2023-12-29T01:35:06;2.70;;;2.20;;
44456;SDS011;30159;49.316;8.558;2023-12-29T01:37:33;2.23;;;2.00;;
44456;SDS011;30159;49.316;8.558;2023-12-29T01:39:59;2.40;;;1.73;;
44456;SDS011;30159;49.316;8.558;2023-12-29T01:42:26;3.93;;;2.40;;
44456;SDS011;30159;49.316;8.558;2023-12-29T01:44:54;3.40;;;2.50;;
44456;SDS011;30159;49.316;8.558;2023-12-29T01:47:21;3.67;;;2.00;;
44456;SDS011;30159;49.316;8.558;2023-12-29T01:49:49;2.60;;;2.17;;
44456;SDS011;30159;49.316;8.558;2023-12-29T01:52:16;3.00;;;1.70;;
44456;SDS011;30159;49.316;8.558;2023-12-29T01:54:44;2.17;;;2.00;;
44456;SDS011;30159;49.316;8.558;2023-12-29T01:57:12;3.23;;;2.47;;
44456;SDS011;30159;49.316;8.558;2023-12-29T01:59:39;5.30;;;2.50;;
44456;SDS011;30159;49.316;8.558;2023-12-29T02:02:08;2.50;;;2.30;;
44456;SDS011;30159;49.316;8.558;2023-12-29T02:04:34;2.40;;;2.20;;
44456;SDS011;30159;49.316;8.558;2023-12-29T02:07:03;3.27;;;1.83;;
44456;SDS011;30159;49.316;8.558;2023-12-29T02:09:29;3.20;;;2.30;;
44456;SDS011;30159;49.316;8.558;2023-12-29T02:11:58;3.00;;;2.37;;
44456;SDS011;30159;49.316;8.558;2023-12-29T02:14:25;2.63;;;2.37;;
44456;SDS011;30159;49.316;8.558;2023-12-29T02:16:54;2.03;;;1.83;;
44456;SDS011;30159;49.316;8.558;2023-12-29T02:19:36;4.43;;;2.57;;
44456;SDS011;30159;49.316;8.558;2023-12-29T02:22:05;5.80;;;2.33;;
44456;SDS011;30159;49.316;8.558;2023-12-29T02:24:33;4.10;;;1.90;;
44456;SDS011;30159;49.316;8.558;2023-12-29T02:27:04;2.27;;;1.80;;
44456;SDS011;30159;49.316;8.558;2023-12-29T02:29:48;4.50;;;2.03;;
44456;SDS011;30159;49.316;8.558;2023-12-29T02:32:22;5.30;;;2.03;;
44456;SDS011;30159;49.316;8.558;2023-12-29T02:34:50;2.60;;;2.17;;
44456;SDS011;30159;49.316;8.558;2023-12-29T02:37:18;3.87;;;2.67;;
44456;SDS011;30159;49.316;8.558;2023-12-29T02:39:46;4.50;;;2.50;;
44456;SDS011;30159;49.316;8.558;2023-12-29T02:42:13;1.90;;;1.80;;
44456;SDS011;30159;49.316;8.558;2023-12-29T02:44:40;2.17;;;1.70;;
44456;SDS011;30159;49.316;8.558;2023-12-29T02:47:07;2.23;;;1.97;;
44456;SDS011;30159;49.316;8.558;2023-12-29T02:49:33;2.10;;;2.00;;
44456;SDS011;30159;49.316;8.558;2023-12-29T02:52:00;2.87;;;2.33;;
44456;SDS011;30159;49.316;8.558;2023-12-29T02:54:27;2.30;;;1.47;;
44456;SDS011;30159;49.316;8.558;2023-12-29T02:56:53;1.80;;;1.70;;
44456;SDS011;30159;49.316;8.558;2023-12-29T02:59:22;2.33;;;1.90;;
44456;SDS011;30159;49.316;8.558;2023-12-29T03:01:49;2.47;;;2.00;;
44456;SDS011;30159;49.316;8.558;2023-12-29T03:04:15;3.20;;;2.20;;
44456;SDS011;30159;49.316;8.558;2023-12-29T03:06:42;2.40;;;2.10;;
44456;SDS011;30159;49.316;8.558;2023-12-29T03:09:09;2.60;;;2.20;;
44456;SDS011;30159;49.316;8.558;2023-12-29T03:11:36;2.80;;;1.60;;
44456;SDS011;30159;49.316;8.558;2023-12-29T03:14:02;1.93;;;1.53;;
44456;SDS011;30159;49.316;8.558;2023-12-29T03:16:30;3.13;;;2.27;;
44456;SDS011;30159;49.316;8.558;2023-12-29T03:18:57;4.73;;;2.30;;
44456;SDS011;30159;49.316;8.558;2023-12-29T03:21:23;3.47;;;2.43;;
44456;SDS011;30159;49.316;8.558;2023-12-29T03:23:50;7.30;;;2.37;;
44456;SDS011;30159;49.316;8.558;2023-12-29T03:26:16;2.50;;;2.07;;
44456;SDS011;30159;49.316;8.558;2023-12-29T03:28:43;2.17;;;1.97;;
44456;SDS011;30159;49.316;8.558;2023-12-29T03:31:10;2.80;;;1.83;;
44456;SDS011;30159;49.316;8.558;2023-12-29T03:33:38;2.20;;;1.77;;
44456;SDS011;30159;49.316;8.558;2023-12-29T03:36:05;2.23;;;2.00;;
44456;SDS011;30159;49.316;8.558;2023-12-29T03:38:32;2.17;;;1.90;;
44456;SDS011;30159;49.316;8.558;2023-12-29T03:40:59;1.93;;;1.50;;
44456;SDS011;30159;49.316;8.558;2023-12-29T03:43:26;4.53;;;2.93;;
44456;SDS011;30159;49.316;8.558;2023-12-29T03:45:52;3.43;;;2.33;;
44456;SDS011;30159;49.316;8.558;2023-12-29T03:48:19;2.40;;;2.20;;
44456;SDS011;30159;49.316;8.558;2023-12-29T03:50:47;3.30;;;3.00;;
44456;SDS011;30159;49.316;8.558;2023-12-29T03:53:13;3.03;;;2.40;;
44456;SDS011;30159;49.316;8.558;2023-12-29T03:55:41;2.27;;;2.07;;
44456;SDS011;30159;49.316;8.558;2023-12-29T03:58:07;3.97;;;2.93;;
44456;SDS011;30159;49.316;8.558;2023-12-29T04:00:34;3.93;;;2.43;;
44456;SDS011;30159;49.316;8.558;2023-12-29T04:03:01;3.13;;;2.70;;
44456;SDS011;30159;49.316;8.558;2023-12-29T04:05:27;6.63;;;2.40;;
44456;SDS011;30159;49.316;8.558;2023-12-29T04:07:55;4.97;;;2.43;;
44456;SDS011;30159;49.316;8.558;2023-12-29T04:10:22;3.33;;;2.20;;
44456;SDS011;30159;49.316;8.558;2023-12-29T04:12:49;3.80;;;2.30;;
44456;SDS011;30159;49.316;8.558;2023-12-29T04:15:18;2.70;;;1.97;;
44456;SDS011;30159;49.316;8.558;2023-12-29T04:17:45;3.17;;;2.30;;
44456;SDS011;30159;49.316;8.558;2023-12-29T04:20:11;4.73;;;2.60;;
44456;SDS011;30159;49.316;8.558;2023-12-29T04:22:38;2.33;;;1.93;;
44456;SDS011;30159;49.316;8.558;2023-12-29T04:25:05;1.80;;;1.70;;
44456;SDS011;30159;49.316;8.558;2023-12-29T04:27:32;2.83;;;2.13;;
44456;SDS011;30159;49.316;8.558;2023-12-29T04:29:59;1.97;;;1.77;;
44456;SDS011;30159;49.316;8.558;2023-12-29T04:32:26;2.10;;;1.90;;
44456;SDS011;30159;49.316;8.558;2023-12-29T04:34:52;2.60;;;2.20;;
44456;SDS011;30159;49.316;8.558;2023-12-29T04:37:19;1.77;;;1.50;;
44456;SDS011;30159;49.316;8.558;2023-12-29T04:39:46;2.33;;;2.00;;
44456;SDS011;30159;49.316;8.558;2023-12-29T04:42:14;3.23;;;2.30;;
44456;SDS011;30159;49.316;8.558;2023-12-29T04:44:42;2.13;;;1.83;;
44456;SDS011;30159;49.316;8.558;2023-12-29T04:47:08;2.10;;;1.60;;
44456;SDS011;30159;49.316;8.558;2023-12-29T04:49:35;2.10;;;1.90;;
44456;SDS011;30159;49.316;8.558;2023-12-29T04:52:01;2.07;;;1.87;;
44456;SDS011;30159;49.316;8.558;2023-12-29T04:54:29;2.60;;;1.83;;
44456;SDS011;30159;49.316;8.558;2023-12-29T04:56:55;1.90;;;1.60;;
44456;SDS011;30159;49.316;8.558;2023-12-29T04:59:23;2.03;;;1.90;;
44456;SDS011;30159;49.316;8.558;2023-12-29T05:01:50;2.47;;;1.60;;
44456;SDS011;30159;49.316;8.558;2023-12-29T05:04:16;1.93;;;1.70;;
44456;SDS011;30159;49.316;8.558;2023-12-29T05:06:43;1.20;;;1.10;;
44456;SDS011;30159;49.316;8.558;2023-12-29T05:09:09;1.97;;;1.60;;
44456;SDS011;30159;49.316;8.558;2023-12-29T05:11:36;2.30;;;1.20;;
44456;SDS011;30159;49.316;8.558;2023-12-29T05:14:03;3.40;;;1.80;;
44456;SDS011;30159;49.316;8.558;2023-12-29T05:16:31;2.00;;;1.70;;
44456;SDS011;30159;49.316;8.558;2023-12-29T05:18:57;1.40;;;1.30;;
44456;SDS011;30159;49.316;8.558;2023-12-29T05:21:24;1.47;;;1.30;;
44456;SDS011;30159;49.316;8.558;2023-12-29T05:23:51;1.37;;;1.27;;
44456;SDS011;30159;49.316;8.558;2023-12-29T05:26:18;1.40;;;1.30;;
44456;SDS011;30159;49.316;8.558;2023-12-29T05:28:45;2.57;;;1.50;;
44456;SDS011;30159;49.316;8.558;2023-12-29T05:31:12;2.10;;;1.60;;
44456;SDS011;30159;49.316;8.558;2023-12-29T05:33:39;1.43;;;1.30;;
44456;SDS011;30159;49.316;8.558;2023-12-29T05:36:07;1.93;;;1.70;;
44456;SDS011;30159;49.316;8.558;2023-12-29T05:38:35;2.73;;;1.53;;
44456;SDS011;30159;49.316;8.558;2023-12-29T05:41:02;1.97;;;1.53;;
44456;SDS011;30159;49.316;8.558;2023-12-29T05:43:30;2.90;;;2.23;;
44456;SDS011;30159;49.316;8.558;2023-12-29T05:45:57;1.40;;;1.27;;
44456;SDS011;30159;49.316;8.558;2023-12-29T05:48:24;1.30;;;1.20;;
44456;SDS011;30159;49.316;8.558;2023-12-29T05:50:52;3.37;;;1.63;;
44456;SDS011;30159;49.316;8.558;2023-12-29T05:53:19;1.43;;;1.33;;
44456;SDS011;30159;49.316;8.558;2023-12-29T05:55:45;3.40;;;1.53;;
44456;SDS011;30159;49.316;8.558;2023-12-29T05:58:12;2.20;;;1.70;;
44456;SDS011;30159;49.316;8.558;2023-12-29T06:00:39;2.90;;;2.20;;
44456;SDS011;30159;49.316;8.558;2023-12-29T06:03:06;1.60;;;1.50;;
44456;SDS011;30159;49.316;8.558;2023-12-29T06:05:33;4.63;;;1.50;;
44456;SDS011;30159;49.316;8.558;2023-12-29T06:08:01;1.80;;;1.57;;
44456;SDS011;30159;49.316;8.558;2023-12-29T06:10:27;2.60;;;2.07;;
44456;SDS011;30159;49.316;8.558;2023-12-29T06:12:54;2.17;;;1.70;;
44456;SDS011;30159;49.316;8.558;2023-12-29T06:15:21;2.70;;;2.10;;
44456;SDS011;30159;49.316;8.558;2023-12-29T06:17:47;2.90;;;1.80;;
44456;SDS011;30159;49.316;8.558;2023-12-29T06:20:14;2.60;;;2.20;;
44456;SDS011;30159;49.316;8.558;2023-12-29T06:22:41;2.00;;;1.80;;
44456;SDS011;30159;49.316;8.558;2023-12-29T06:25:10;2.50;;;1.83;;
44456;SDS011;30159;49.316;8.558;2023-12-29T06:27:38;1.83;;;1.50;;
44456;SDS011;30159;49.316;8.558;2023-12-29T06:30:06;3.60;;;1.90;;
44456;SDS011;30159;49.316;8.558;2023-12-29T06:32:33;2.43;;;1.87;;
44456;SDS011;30159;49.316;8.558;2023-12-29T06:35:00;1.80;;;1.70;;
44456;SDS011;30159;49.316;8.558;2023-12-29T06:37:28;3.17;;;1.73;;
44456;SDS011;30159;49.316;8.558;2023-12-29T06:39:54;2.13;;;1.40;;
44456;SDS011;30159;49.316;8.558;2023-12-29T06:42:22;2.83;;;2.30;;
44456;SDS011;30159;49.316;8.558;2023-12-29T06:44:49;4.07;;;1.70;;
44456;SDS011;30159;49.316;8.558;2023-12-29T06:47:16;1.70;;;1.60;;
44456;SDS011;30159;49.316;8.558;2023-12-29T06:49:43;2.60;;;1.87;;
44456;SDS011;30159;49.316;8.558;2023-12-29T06:52:09;1.57;;;1.43;;
44456;SDS011;30159;49.316;8.558;2023-12-29T06:54:36;2.23;;;2.03;;
44456;SDS011;30159;49.316;8.558;2023-12-29T06:57:03;2.37;;;2.17;;
44456;SDS011;30159;49.316;8.558;2023-12-29T06:59:31;3.00;;;2.10;;
44456;SDS011;30159;49.316;8.558;2023-12-29T07:01:58;2.97;;;1.93;;
44456;SDS011;30159;49.316;8.558;2023-12-29T07:04:24;2.63;;;1.57;;
44456;SDS011;30159;49.316;8.558;2023-12-29T07:06:51;5.53;;;2.50;;
44456;SDS011;30159;49.316;8.558;2023-12-29T07:09:18;3.97;;;1.63;;
44456;SDS011;30159;49.316;8.558;2023-12-29T07:11:46;2.10;;;1.47;;
44456;SDS011;30159;49.316;8.558;2023-12-29T07:14:13;2.13;;;1.70;;
44456;SDS011;30159;49.316;8.558;2023-12-29T07:16:41;1.73;;;1.63;;
44456;SDS011;30159;49.316;8.558;2023-12-29T07:19:08;1.73;;;1.57;;
44456;SDS011;30159;49.316;8.558;2023-12-29T07:21:35;5.10;;;2.17;;
44456;SDS011;30159;49.316;8.558;2023-12-29T07:24:02;2.23;;;2.03;;
44456;SDS011;30159;49.316;8.558;2023-12-29T07:26:28;2.23;;;1.63;;
44456;SDS011;30159;49.316;8.558;2023-12-29T07:28:55;4.70;;;2.10;;
44456;SDS011;30159;49.316;8.558;2023-12-29T07:31:22;2.30;;;2.00;;
44456;SDS011;30159;49.316;8.558;2023-12-29T07:33:50;2.20;;;2.00;;
44456;SDS011;30159;49.316;8.558;2023-12-29T07:36:17;1.50;;;1.37;;
44456;SDS011;30159;49.316;8.558;2023-12-29T07:38:44;2.00;;;1.80;;
44456;SDS011;30159;49.316;8.558;2023-12-29T07:41:10;3.33;;;1.80;;
44456;SDS011;30159;49.316;8.558;2023-12-29T07:43:37;2.40;;;1.63;;
44456;SDS011;30159;49.316;8.558;2023-12-29T07:46:04;3.03;;;2.20;;
44456;SDS011;30159;49.316;8.558;2023-12-29T07:48:31;3.00;;;2.40;;
44456;SDS011;30159;49.316;8.558;2023-12-29T07:51:03;3.13;;;1.70;;
44456;SDS011;30159;49.316;8.558;2023-12-29T07:53:31;1.80;;;1.60;;
44456;SDS011;30159;49.316;8.558;2023-12-29T07:55:58;2.23;;;2.03;;
44456;SDS011;30159;49.316;8.558;2023-12-29T07:58:24;1.83;;;1.70;;
44456;SDS011;30159;49.316;8.558;2023-12-29T08:00:51;2.00;;;1.70;;
44456;SDS011;30159;49.316;8.558;2023-12-29T08:03:17;2.20;;;1.70;;
44456;SDS011;30159;49.316;8.558;2023-12-29T08:05:44;2.10;;;1.70;;
44456;SDS011;30159;49.316;8.558;2023-12-29T08:08:13;2.33;;;1.80;;
44456;SDS011;30159;49.316;8.558;2023-12-29T08:10:40;2.00;;;1.70;;
44456;SDS011;30159;49.316;8.558;2023-12-29T08:13:06;4.60;;;1.77;;
44456;SDS011;30159;49.316;8.558;2023-12-29T08:15:34;2.17;;;1.97;;
44456;SDS011;30159;49.316;8.558;2023-12-29T08:18:00;1.57;;;1.37;;
44456;SDS011;30159;49.316;8.558;2023-12-29T08:20:27;3.20;;;2.00;;
44456;SDS011;30159;49.316;8.558;2023-12-29T08:22:54;4.40;;;1.90;;
44456;SDS011;30159;49.316;8.558;2023-12-29T08:25:23;1.77;;;1.63;;
44456;SDS011;30159;49.316;8.558;2023-12-29T08:27:50;2.20;;;1.90;;
44456;SDS011;30159;49.316;8.558;2023-12-29T08:30:16;2.73;;;2.00;;
44456;SDS011;30159;49.316;8.558;2023-12-29T08:32:43;2.20;;;2.00;;
44456;SDS011;30159;49.316;8.558;2023-12-29T08:35:09;2.03;;;1.60;;
44456;SDS011;30159;49.316;8.558;2023-12-29T08:37:36;1.80;;;1.50;;
44456;SDS011;30159;49.316;8.558;2023-12-29T08:40:03;2.10;;;1.90;;
44456;SDS011;30159;49.316;8.558;2023-12-29T08:42:32;2.00;;;1.60;;
44456;SDS011;30159;49.316;8.558;2023-12-29T08:44:59;3.00;;;1.67;;
44456;SDS011;30159;49.316;8.558;2023-12-29T08:47:26;2.07;;;1.80;;
44456;SDS011;30159;49.316;8.558;2023-12-29T08:49:51;3.30;;;1.90;;
44456;SDS011;30159;49.316;8.558;2023-12-29T08:52:19;3.83;;;2.20;;
44456;SDS011;30159;49.316;8.558;2023-12-29T08:54:46;1.90;;;1.70;;
44456;SDS011;30159;49.316;8.558;2023-12-29T08:57:12;2.00;;;1.67;;
44456;SDS011;30159;49.316;8.558;2023-12-29T08:59:40;5.60;;;2.20;;
44456;SDS011;30159;49.316;8.558;2023-12-29T09:02:07;1.80;;;1.57;;
44456;SDS011;30159;49.316;8.558;2023-12-29T09:04:33;2.40;;;1.50;;
44456;SDS011;30159;49.316;8.558;2023-12-29T09:07:00;2.60;;;2.30;;
44456;SDS011;30159;49.316;8.558;2023-12-29T09:09:29;2.20;;;1.63;;
44456;SDS011;30159;49.316;8.558;2023-12-29T09:11:56;2.40;;;1.93;;
44456;SDS011;30159;49.316;8.558;2023-12-29T09:14:22;2.97;;;2.00;;
44456;SDS011;30159;49.316;8.558;2023-12-29T09:16:50;2.00;;;1.50;;
44456;SDS011;30159;49.316;8.558;2023-12-29T09:19:17;1.70;;;1.60;;
44456;SDS011;30159;49.316;8.558;2023-12-29T09:21:44;2.37;;;2.13;;
44456;SDS011;30159;49.316;8.558;2023-12-29T09:24:11;2.37;;;1.80;;
44456;SDS011;30159;49.316;8.558;2023-12-29T09:26:37;2.50;;;1.70;;
44456;SDS011;30159;49.316;8.558;2023-12-29T09:29:04;2.50;;;1.50;;
44456;SDS011;30159;49.316;8.558;2023-12-29T09:31:31;1.97;;;1.70;;
44456;SDS011;30159;49.316;8.558;2023-12-29T09:34:01;3.70;;;1.93;;
44456;SDS011;30159;49.316;8.558;2023-12-29T09:36:28;2.27;;;2.00;;
44456;SDS011;30159;49.316;8.558;2023-12-29T09:38:55;2.10;;;1.87;;
44456;SDS011;30159;49.316;8.558;2023-12-29T09:41:22;1.90;;;1.40;;
44456;SDS011;30159;49.316;8.558;2023-12-29T09:43:50;1.53;;;1.30;;
44456;SDS011;30159;49.316;8.558;2023-12-29T09:46:17;2.10;;;1.40;;
44456;SDS011;30159;49.316;8.558;2023-12-29T09:48:44;1.53;;;1.43;;
44456;SDS011;30159;49.316;8.558;2023-12-29T09:51:14;1.40;;;1.20;;
44456;SDS011;30159;49.316;8.558;2023-12-29T09:53:41;1.53;;;1.43;;
44456;SDS011;30159;49.316;8.558;2023-12-29T09:56:08;1.60;;;1.23;;
44456;SDS011;30159;49.316;8.558;2023-12-29T09:58:35;1.40;;;1.30;;
44456;SDS011;30159;49.316;8.558;2023-12-29T10:01:03;1.57;;;1.30;;
44456;SDS011;30159;49.316;8.558;2023-12-29T10:03:31;1.53;;;1.43;;
44456;SDS011;30159;49.316;8.558;2023-12-29T10:05:59;1.60;;;1.30;;
44456;SDS011;30159;49.316;8.558;2023-12-29T10:08:28;3.60;;;1.30;;
44456;SDS011;30159;49.316;8.558;2023-12-29T10:10:58;4.60;;;1.40;;
44456;SDS011;30159;49.316;8.558;2023-12-29T10:13:28;1.33;;;1.23;;
44456;SDS011;30159;49.316;8.558;2023-12-29T10:15:57;1.57;;;1.40;;
44456;SDS011;30159;49.316;8.558;2023-12-29T10:18:37;1.70;;;1.60;;
44456;SDS011;30159;49.316;8.558;2023-12-29T10:21:12;1.83;;;1.50;;
44456;SDS011;30159;49.316;8.558;2023-12-29T10:23:50;1.50;;;1.30;;
44456;SDS011;30159;49.316;8.558;2023-12-29T10:26:22;1.43;;;1.10;;
44456;SDS011;30159;49.316;8.558;2023-12-29T10:28:50;1.57;;;1.43;;
44456;SDS011;30159;49.316;8.558;2023-12-29T10:31:18;1.30;;;1.20;;
44456;SDS011;30159;49.316;8.558;2023-12-29T10:33:44;1.33;;;1.23;;
44456;SDS011;30159;49.316;8.558;2023-12-29T10:36:15;1.53;;;1.20;;
44456;SDS011;30159;49.316;8.558;2023-12-29T10:38:42;1.40;;;1.30;;
44456;SDS011;30159;49.316;8.558;2023-12-29T10:41:14;1.27;;;1.17;;
44456;SDS011;30159;49.316;8.558;2023-12-29T10:43:42;1.20;;;1.00;;
44456;SDS011;30159;49.316;8.558;2023-12-29T10:46:12;1.17;;;0.87;;
44456;SDS011;30159;49.316;8.558;2023-12-29T10:48:40;2.87;;;1.10;;
44456;SDS011;30159;49.316;8.558;2023-12-29T10:51:06;1.07;;;0.97;;
44456;SDS011;30159;49.316;8.558;2023-12-29T10:53:34;1.70;;;1.20;;
44456;SDS011;30159;49.316;8.558;2023-12-29T10:56:02;1.00;;;0.90;;
44456;SDS011;30159;49.316;8.558;2023-12-29T10:58:30;1.53;;;1.30;;
44456;SDS011;30159;49.316;8.558;2023-12-29T11:00:57;1.17;;;1.00;;
44456;SDS011;30159;49.316;8.558;2023-12-29T11:03:25;1.30;;;1.10;;
44456;SDS011;30159;49.316;8.558;2023-12-29T11:05:52;1.13;;;1.03;;
44456;SDS011;30159;49.316;8.558;2023-12-29T11:08:25;1.40;;;1.03;;
44456;SDS011;30159;49.316;8.558;2023-12-29T11:10:51;1.57;;;1.20;;
44456;SDS011;30159;49.316;8.558;2023-12-29T11:13:21;1.17;;;1.07;;
44456;SDS011;30159;49.316;8.558;2023-12-29T11:15:49;2.07;;;0.97;;
44456;SDS011;30159;49.316;8.558;2023-12-29T11:18:18;1.13;;;0.90;;
44456;SDS011;30159;49.316;8.558;2023-12-29T11:20:45;1.10;;;0.80;;
44456;SDS011;30159;49.316;8.558;2023-12-29T11:23:12;2.37;;;0.93;;
44456;SDS011;30159;49.316;8.558;2023-12-29T11:25:39;0.87;;;0.80;;
44456;SDS011;30159;49.316;8.558;2023-12-29T11:28:06;1.10;;;1.00;;
44456;SDS011;30159;49.316;8.558;2023-12-29T11:30:37;1.17;;;0.97;;
44456;SDS011;30159;49.316;8.558;2023-12-29T11:33:07;1.17;;;1.03;;
44456;SDS011;30159;49.316;8.558;2023-12-29T11:35:39;1.30;;;0.90;;
44456;SDS011;30159;49.316;8.558;2023-12-29T11:38:15;1.10;;;1.00;;
44456;SDS011;30159;49.316;8.558;2023-12-29T11:40:52;0.90;;;0.80;;
44456;SDS011;30159;49.316;8.558;2023-12-29T11:43:27;1.00;;;0.83;;
44456;SDS011;30159;49.316;8.558;2023-12-29T11:45:53;1.10;;;0.97;;
44456;SDS011;30159;49.316;8.558;2023-12-29T11:51:32;0.90;;;0.80;;
44456;SDS011;30159;49.316;8.558;2023-12-29T11:54:00;1.10;;;0.90;;
44456;SDS011;30159;49.316;8.558;2023-12-29T11:56:30;1.17;;;0.97;;
44456;SDS011;30159;49.316;8.558;2023-12-29T11:59:11;1.43;;;1.23;;
44456;SDS011;30159;49.316;8.558;2023-12-29T12:01:39;0.90;;;0.77;;
44456;SDS011;30159;49.316;8.558;2023-12-29T12:07:02;1.73;;;0.90;;
44456;SDS011;30159;49.316;8.558;2023-12-29T12:09:29;0.93;;;0.83;;
44456;SDS011;30159;49.316;8.558;2023-12-29T12:11:56;1.17;;;0.80;;
44456;SDS011;30159;49.316;8.558;2023-12-29T12:17:12;1.20;;;1.10;;
44456;SDS011;30159;49.316;8.558;2023-12-29T12:19:53;2.03;;;1.00;;
44456;SDS011;30159;49.316;8.558;2023-12-29T12:22:23;1.13;;;1.03;;
44456;SDS011;30159;49.316;8.558;2023-12-29T12:24:50;0.80;;;0.70;;
44456;SDS011;30159;49.316;8.558;2023-12-29T12:27:22;1.20;;;1.10;;
44456;SDS011;30159;49.316;8.558;2023-12-29T12:29:51;0.93;;;0.83;;
44456;SDS011;30159;49.316;8.558;2023-12-29T12:32:20;1.50;;;0.87;;
44456;SDS011;30159;49.316;8.558;2023-12-29T12:34:47;1.67;;;0.70;;
44456;SDS011;30159;49.316;8.558;2023-12-29T12:37:19;1.10;;;0.97;;
44456;SDS011;30159;49.316;8.558;2023-12-29T12:39:47;1.57;;;1.07;;
44456;SDS011;30159;49.316;8.558;2023-12-29T12:42:14;1.20;;;0.80;;
44456;SDS011;30159;49.316;8.558;2023-12-29T12:44:42;0.90;;;0.70;;
44456;SDS011;30159;49.316;8.558;2023-12-29T12:47:23;0.90;;;0.73;;
44456;SDS011;30159;49.316;8.558;2023-12-29T12:49:53;1.40;;;1.10;;
44456;SDS011;30159;49.316;8.558;2023-12-29T12:52:21;1.10;;;0.90;;
44456;SDS011;30159;49.316;8.558;2023-12-29T12:54:48;1.23;;;1.10;;
44456;SDS011;30159;49.316;8.558;2023-12-29T12:57:18;1.00;;;0.90;;
44456;SDS011;30159;49.316;8.558;2023-12-29T12:59:46;1.00;;;0.90;;
44456;SDS011;30159;49.316;8.558;2023-12-29T13:02:16;1.10;;;1.00;;
44456;SDS011;30159;49.316;8.558;2023-12-29T13:04:45;0.90;;;0.90;;
44456;SDS011;30159;49.316;8.558;2023-12-29T13:07:14;1.63;;;1.30;;
44456;SDS011;30159;49.316;8.558;2023-12-29T13:09:43;1.00;;;0.90;;
44456;SDS011;30159;49.316;8.558;2023-12-29T13:12:11;1.10;;;1.00;;
44456;SDS011;30159;49.316;8.558;2023-12-29T13:14:38;1.20;;;1.10;;
44456;SDS011;30159;49.316;8.558;2023-12-29T13:17:06;1.53;;;1.10;;
44456;SDS011;30159;49.316;8.558;2023-12-29T13:19:34;1.30;;;1.20;;
44456;SDS011;30159;49.316;8.558;2023-12-29T13:22:00;1.10;;;0.90;;
44456;SDS011;30159;49.316;8.558;2023-12-29T13:24:28;1.10;;;1.00;;
44456;SDS011;30159;49.316;8.558;2023-12-29T13:26:57;1.10;;;1.00;;
44456;SDS011;30159;49.316;8.558;2023-12-29T13:29:28;1.00;;;0.90;;
44456;SDS011;30159;49.316;8.558;2023-12-29T13:31:56;0.90;;;0.80;;
44456;SDS011;30159;49.316;8.558;2023-12-29T13:34:27;1.00;;;0.90;;
44456;SDS011;30159;49.316;8.558;2023-12-29T13:37:00;1.07;;;0.97;;
44456;SDS011;30159;49.316;8.558;2023-12-29T13:39:36;1.00;;;0.90;;
44456;SDS011;30159;49.316;8.558;2023-12-29T13:42:10;0.97;;;0.80;;
44456;SDS011;30159;49.316;8.558;2023-12-29T13:44:39;1.20;;;1.10;;
44456;SDS011;30159;49.316;8.558;2023-12-29T13:47:08;0.80;;;0.80;;
44456;SDS011;30159;49.316;8.558;2023-12-29T13:49:36;1.03;;;0.87;;
44456;SDS011;30159;49.316;8.558;2023-12-29T13:52:04;1.30;;;1.10;;
44456;SDS011;30159;49.316;8.558;2023-12-29T13:54:31;1.07;;;0.97;;
44456;SDS011;30159;49.316;8.558;2023-12-29T13:57:06;1.20;;;0.90;;
44456;SDS011;30159;49.316;8.558;2023-12-29T13:59:34;0.70;;;0.70;;
44456;SDS011;30159;49.316;8.558;2023-12-29T14:02:03;0.97;;;0.87;;
44456;SDS011;30159;49.316;8.558;2023-12-29T14:04:45;0.90;;;0.80;;
44456;SDS011;30159;49.316;8.558;2023-12-29T14:07:11;0.90;;;0.80;;
44456;SDS011;30159;49.316;8.558;2023-12-29T14:09:39;1.00;;;0.90;;
44456;SDS011;30159;49.316;8.558;2023-12-29T14:12:06;1.10;;;1.00;;
44456;SDS011;30159;49.316;8.558;2023-12-29T14:14:32;1.80;;;0.90;;
44456;SDS011;30159;49.316;8.558;2023-12-29T14:17:00;1.50;;;1.20;;
44456;SDS011;30159;49.316;8.558;2023-12-29T14:19:33;1.00;;;0.83;;
44456;SDS011;30159;49.316;8.558;2023-12-29T14:22:00;1.40;;;0.87;;
44456;SDS011;30159;49.316;8.558;2023-12-29T14:24:27;1.13;;;1.03;;
44456;SDS011;30159;49.316;8.558;2023-12-29T14:26:54;1.57;;;1.00;;
44456;SDS011;30159;49.316;8.558;2023-12-29T14:29:23;1.20;;;1.10;;
44456;SDS011;30159;49.316;8.558;2023-12-29T14:31:52;1.17;;;1.00;;
44456;SDS011;30159;49.316;8.558;2023-12-29T14:34:21;1.10;;;1.00;;
44456;SDS011;30159;49.316;8.558;2023-12-29T14:36:48;1.23;;;1.10;;
44456;SDS011;30159;49.316;8.558;2023-12-29T14:39:15;1.10;;;1.00;;
44456;SDS011;30159;49.316;8.558;2023-12-29T14:41:42;1.20;;;1.10;;
44456;SDS011;30159;49.316;8.558;2023-12-29T14:44:08;1.30;;;1.10;;
44456;SDS011;30159;49.316;8.558;2023-12-29T14:46:36;1.57;;;1.10;;
44456;SDS011;30159;49.316;8.558;2023-12-29T14:49:04;1.00;;;0.77;;
44456;SDS011;30159;49.316;8.558;2023-12-29T14:51:32;1.10;;;0.97;;
44456;SDS011;30159;49.316;8.558;2023-12-29T14:53:58;0.97;;;0.83;;
44456;SDS011;30159;49.316;8.558;2023-12-29T14:56:28;1.10;;;1.00;;
44456;SDS011;30159;49.316;8.558;2023-12-29T14:58:54;1.00;;;0.90;;
44456;SDS011;30159;49.316;8.558;2023-12-29T15:01:21;1.20;;;1.10;;